Flag for Norway

Past Weather in 63°06'37"N, 7°43'40"E, Norway — Yesterday and Last 2 Weeks

Currently: 41 °F. Light rain. Broken clouds. (Weather station: Kristiansund / Kvernberget, Norway). See more current weather

Past Weather in 63°06'37"N, 7°43'40"E — Graph

°F

63°06'37"N, 7°43'40"E Temperature Yesterday

Maximum temperature yesterday: 46 °F (at 7:20 pm)
Minimum temperature yesterday: 32 °F (at 12:20 am)
Average temperature yesterday: 39 °F

High & Low Weather Summary for the Past Weeks

 TemperatureHumidityPressure
High48 °F (Feb 23, 3:20 pm)93% (Feb 14, 6:20 pm)30.33 "Hg (Feb 14, 6:20 pm)
Low28 °F (Feb 19, 7:50 am)39% (Feb 18, 1:20 pm)28.38 "Hg (Feb 23, 1:50 pm)
Average39 °F68%29.55 "Hg
* Reported Feb 13 3:20 pm — Feb 28 3:20 pm, 63°06'37"N, 7°43'40"E. Weather by CustomWeather, © 2024

Note: Actual official high and low records may vary slightly from our data, if they occured in-between our weather recording intervals... More about our weather records

63°06'37"N, 7°43'40"E Weather History for the Previous 24 Hours

Scroll right to see more
 ConditionsComfort  
Time TempWeatherWind HumidityBarometerVisibility
3:20 pm
Wed, Feb 28
41 °FLight rain. Broken clouds.13 mph76%29.56 "HgN/A
2:50 pm39 °FPartly sunny.7 mph87%29.56 "HgN/A
2:20 pm39 °FBroken clouds.13 mph87%29.56 "HgN/A
1:50 pm39 °FRain. Broken clouds.15 mph87%29.56 "Hg2 mi
1:20 pm37 °FLight rain. Light fog.12 mph93%29.56 "Hg5 mi
12:50 pm39 °FScattered showers. Broken clouds.13 mph81%29.53 "HgN/A
12:20 pm37 °FBroken clouds.8 mph87%29.53 "HgN/A
11:50 am37 °FRain. Broken clouds.13 mph87%29.53 "Hg6 mi
11:20 am39 °FRain showers. Broken clouds.18 mph75%29.53 "HgN/A
10:50 am43 °FScattered showers. Broken clouds.17 mph57%29.50 "HgN/A
10:20 am43 °FPassing clouds.16 mph57%29.47 "HgN/A
9:50 am43 °FScattered clouds.16 mph57%29.47 "HgN/A
9:20 am41 °FScattered clouds.17 mph66%29.47 "HgN/A
8:50 am39 °FBroken clouds.10 mph70%29.47 "HgN/A
8:20 am37 °FBroken clouds.10 mph81%29.47 "HgN/A
7:50 am37 °FBroken clouds.14 mph81%29.47 "HgN/A
7:20 am36 °FSprinkles. Partly cloudy.12 mph93%29.47 "HgN/A
6:50 am37 °FRain showers. Partly cloudy.20 mph87%29.47 "HgN/A
6:20 am41 °FLight rain. Partly cloudy.10 mph70%29.45 "HgN/A
5:50 am41 °FSprinkles. Partly cloudy.18 mph76%29.45 "HgN/A
5:20 am45 °FOvercast.13 mph53%29.42 "HgN/A
4:50 am45 °FMostly cloudy.12 mph49%29.42 "HgN/A
4:20 am43 °FOvercast.3 mph49%29.42 "HgN/A
3:50 am43 °FOvercast.5 mph49%29.42 "HgN/A
3:20 am43 °FOvercast.6 mph49%29.45 "HgN/A
2:50 am45 °FOvercast.7 mph42%29.45 "HgN/A
2:20 am45 °FOvercast.9 mph46%29.45 "HgN/A
1:50 am43 °FOvercast.8 mph49%29.45 "HgN/A
12:50 am41 °FPassing clouds.5 mph57%29.45 "HgN/A
12:20 am41 °FPassing clouds.3 mph57%29.45 "HgN/A
11:50 pm
Tue, Feb 27
41 °FPassing clouds.6 mph53%29.47 "HgN/A
11:20 pm43 °FPassing clouds.5 mph49%29.47 "HgN/A
10:50 pm43 °FQuite cool.9 mph49%29.47 "HgN/A
10:20 pm43 °FPassing clouds.12 mph53%29.47 "HgN/A
9:50 pm43 °FPassing clouds.10 mph53%29.47 "HgN/A
9:20 pm43 °FPassing clouds.8 mph49%29.47 "HgN/A
8:50 pm45 °FPartly cloudy.8 mph46%29.47 "HgN/A
8:20 pm45 °FPartly cloudy.9 mph46%29.47 "HgN/A
7:50 pm45 °FPartly cloudy.10 mph46%29.47 "HgN/A
7:20 pm46 °FPartly cloudy.12 mph43%29.47 "HgN/A
6:50 pm45 °FPassing clouds.14 mph46%29.45 "HgN/A
6:20 pm45 °FPartly cloudy.13 mph46%29.45 "HgN/A
5:50 pm41 °FPartly cloudy.5 mph53%29.47 "HgN/A
5:20 pm43 °FBroken clouds.6 mph49%29.47 "HgN/A
4:50 pm43 °FPassing clouds.7 mph46%29.47 "HgN/A
4:20 pm41 °FPassing clouds.5 mph53%29.50 "HgN/A
Weather by CustomWeather, © 2024

See weather overview